sensor_id;sensor_type;location;lat;lon;timestamp;P1;durP1;ratioP1;P2;durP2;ratioP2
58972;SDS011;44750;52.040;7.472;2024-03-06T05:01:05;60.08;;;34.20;;
58972;SDS011;44750;52.040;7.472;2024-03-06T05:06:05;66.25;;;36.58;;
58972;SDS011;44750;52.040;7.472;2024-03-06T05:11:06;61.42;;;36.28;;
58972;SDS011;44750;52.040;7.472;2024-03-06T05:16:06;62.97;;;37.78;;
58972;SDS011;44750;52.040;7.472;2024-03-06T05:21:06;62.97;;;39.17;;
58972;SDS011;44750;52.040;7.472;2024-03-06T05:26:07;76.90;;;40.10;;
58972;SDS011;44750;52.040;7.472;2024-03-06T05:31:16;61.63;;;36.33;;
58972;SDS011;44750;52.040;7.472;2024-03-06T05:36:18;60.30;;;37.42;;
58972;SDS011;44750;52.040;7.472;2024-03-06T05:41:18;61.70;;;36.90;;
58972;SDS011;44750;52.040;7.472;2024-03-06T05:46:18;60.33;;;36.72;;
58972;SDS011;44750;52.040;7.472;2024-03-06T05:51:19;66.68;;;38.60;;
58972;SDS011;44750;52.040;7.472;2024-03-06T05:56:19;61.60;;;38.20;;
58972;SDS011;44750;52.040;7.472;2024-03-06T06:01:19;63.85;;;38.45;;
58972;SDS011;44750;52.040;7.472;2024-03-06T06:06:19;57.92;;;37.28;;
58972;SDS011;44750;52.040;7.472;2024-03-06T06:11:20;73.05;;;37.45;;
58972;SDS011;44750;52.040;7.472;2024-03-06T06:16:20;54.92;;;37.17;;
58972;SDS011;44750;52.040;7.472;2024-03-06T06:21:20;68.25;;;37.47;;
58972;SDS011;44750;52.040;7.472;2024-03-06T06:26:20;59.92;;;38.78;;
58972;SDS011;44750;52.040;7.472;2024-03-06T06:31:21;58.10;;;37.20;;
58972;SDS011;44750;52.040;7.472;2024-03-06T06:36:21;57.45;;;36.15;;
58972;SDS011;44750;52.040;7.472;2024-03-06T06:41:21;58.60;;;36.17;;
58972;SDS011;44750;52.040;7.472;2024-03-06T06:46:22;66.18;;;37.97;;
58972;SDS011;44750;52.040;7.472;2024-03-06T06:51:22;74.80;;;37.85;;
58972;SDS011;44750;52.040;7.472;2024-03-06T06:56:22;60.38;;;37.15;;
58972;SDS011;44750;52.040;7.472;2024-03-06T07:01:22;57.83;;;37.63;;
58972;SDS011;44750;52.040;7.472;2024-03-06T07:06:23;66.07;;;37.60;;
58972;SDS011;44750;52.040;7.472;2024-03-06T07:11:23;57.38;;;36.50;;
58972;SDS011;44750;52.040;7.472;2024-03-06T07:16:23;57.58;;;36.38;;
58972;SDS011;44750;52.040;7.472;2024-03-06T07:21:23;68.60;;;38.05;;
58972;SDS011;44750;52.040;7.472;2024-03-06T15:17:34;24.05;;;17.23;;
58972;SDS011;44750;52.040;7.472;2024-03-06T15:22:35;25.70;;;19.60;;
58972;SDS011;44750;52.040;7.472;2024-03-06T15:27:35;22.42;;;17.25;;
58972;SDS011;44750;52.040;7.472;2024-03-06T15:32:36;24.77;;;16.02;;
58972;SDS011;44750;52.040;7.472;2024-03-06T15:37:38;25.08;;;18.48;;
58972;SDS011;44750;52.040;7.472;2024-03-06T15:42:38;22.95;;;17.30;;
58972;SDS011;44750;52.040;7.472;2024-03-06T15:47:38;26.38;;;18.38;;
58972;SDS011;44750;52.040;7.472;2024-03-06T15:52:39;34.67;;;20.15;;
58972;SDS011;44750;52.040;7.472;2024-03-06T15:57:40;27.13;;;19.75;;
58972;SDS011;44750;52.040;7.472;2024-03-06T16:02:40;20.80;;;16.05;;
58972;SDS011;44750;52.040;7.472;2024-03-06T16:07:41;28.42;;;21.05;;
58972;SDS011;44750;52.040;7.472;2024-03-06T16:12:41;25.33;;;19.52;;
58972;SDS011;44750;52.040;7.472;2024-03-06T16:17:41;33.88;;;21.63;;
58972;SDS011;44750;52.040;7.472;2024-03-06T16:22:41;28.90;;;18.83;;
58972;SDS011;44750;52.040;7.472;2024-03-06T16:27:42;30.35;;;21.45;;
58972;SDS011;44750;52.040;7.472;2024-03-06T16:32:42;26.98;;;20.52;;
58972;SDS011;44750;52.040;7.472;2024-03-06T16:37:42;28.02;;;21.42;;
58972;SDS011;44750;52.040;7.472;2024-03-06T16:42:43;29.77;;;20.80;;
58972;SDS011;44750;52.040;7.472;2024-03-06T16:47:43;30.10;;;20.60;;
58972;SDS011;44750;52.040;7.472;2024-03-06T16:52:43;28.55;;;22.38;;
58972;SDS011;44750;52.040;7.472;2024-03-06T16:57:44;28.08;;;21.58;;
58972;SDS011;44750;52.040;7.472;2024-03-06T17:02:44;32.75;;;22.40;;
58972;SDS011;44750;52.040;7.472;2024-03-06T17:07:44;44.55;;;22.55;;
58972;SDS011;44750;52.040;7.472;2024-03-06T17:12:44;31.40;;;23.70;;
58972;SDS011;44750;52.040;7.472;2024-03-06T17:17:44;34.03;;;24.13;;
58972;SDS011;44750;52.040;7.472;2024-03-06T17:22:45;32.97;;;23.65;;
58972;SDS011;44750;52.040;7.472;2024-03-06T17:27:45;35.20;;;24.50;;
58972;SDS011;44750;52.040;7.472;2024-03-06T17:32:45;37.75;;;26.27;;
58972;SDS011;44750;52.040;7.472;2024-03-06T17:37:46;35.67;;;25.15;;
58972;SDS011;44750;52.040;7.472;2024-03-06T17:42:46;32.75;;;24.95;;
58972;SDS011;44750;52.040;7.472;2024-03-06T17:47:46;37.53;;;26.63;;
58972;SDS011;44750;52.040;7.472;2024-03-06T17:52:46;39.00;;;24.73;;
58972;SDS011;44750;52.040;7.472;2024-03-06T17:57:47;50.00;;;27.33;;
58972;SDS011;44750;52.040;7.472;2024-03-06T18:02:47;38.85;;;28.63;;
58972;SDS011;44750;52.040;7.472;2024-03-06T18:07:47;38.35;;;27.63;;
58972;SDS011;44750;52.040;7.472;2024-03-06T18:12:48;39.92;;;26.75;;
58972;SDS011;44750;52.040;7.472;2024-03-06T18:17:48;33.87;;;25.40;;
58972;SDS011;44750;52.040;7.472;2024-03-06T18:22:48;39.15;;;27.02;;
58972;SDS011;44750;52.040;7.472;2024-03-06T18:27:48;35.25;;;25.58;;
58972;SDS011;44750;52.040;7.472;2024-03-06T18:32:49;40.03;;;26.85;;
58972;SDS011;44750;52.040;7.472;2024-03-06T18:37:49;36.67;;;26.42;;
58972;SDS011;44750;52.040;7.472;2024-03-06T18:42:49;39.47;;;27.20;;
58972;SDS011;44750;52.040;7.472;2024-03-06T18:47:49;39.28;;;27.95;;
58972;SDS011;44750;52.040;7.472;2024-03-06T18:52:50;39.17;;;29.15;;
58972;SDS011;44750;52.040;7.472;2024-03-06T18:57:50;39.40;;;27.03;;
58972;SDS011;44750;52.040;7.472;2024-03-06T19:02:50;44.13;;;28.55;;
58972;SDS011;44750;52.040;7.472;2024-03-06T19:07:50;41.38;;;27.73;;
58972;SDS011;44750;52.040;7.472;2024-03-06T19:12:51;38.42;;;27.42;;
58972;SDS011;44750;52.040;7.472;2024-03-06T19:17:51;40.42;;;29.08;;
58972;SDS011;44750;52.040;7.472;2024-03-06T19:22:51;41.67;;;29.10;;
58972;SDS011;44750;52.040;7.472;2024-03-06T19:27:51;39.47;;;27.38;;
58972;SDS011;44750;52.040;7.472;2024-03-06T19:32:52;56.55;;;31.23;;
58972;SDS011;44750;52.040;7.472;2024-03-06T19:37:52;41.90;;;28.38;;
58972;SDS011;44750;52.040;7.472;2024-03-06T19:42:52;41.10;;;28.53;;
58972;SDS011;44750;52.040;7.472;2024-03-06T19:47:55;41.75;;;28.55;;
58972;SDS011;44750;52.040;7.472;2024-03-06T19:53:03;39.45;;;28.92;;
58972;SDS011;44750;52.040;7.472;2024-03-06T19:58:03;41.45;;;29.08;;
58972;SDS011;44750;52.040;7.472;2024-03-06T20:03:04;38.60;;;27.70;;
58972;SDS011;44750;52.040;7.472;2024-03-06T20:08:04;42.53;;;30.30;;
58972;SDS011;44750;52.040;7.472;2024-03-06T20:13:05;45.78;;;29.35;;
58972;SDS011;44750;52.040;7.472;2024-03-06T20:18:05;44.72;;;31.92;;
58972;SDS011;44750;52.040;7.472;2024-03-06T20:23:06;41.80;;;29.05;;
58972;SDS011;44750;52.040;7.472;2024-03-06T20:28:07;41.30;;;29.52;;
58972;SDS011;44750;52.040;7.472;2024-03-06T20:33:08;40.70;;;29.20;;
58972;SDS011;44750;52.040;7.472;2024-03-06T20:38:08;45.00;;;31.40;;
58972;SDS011;44750;52.040;7.472;2024-03-06T20:43:08;41.30;;;27.17;;
58972;SDS011;44750;52.040;7.472;2024-03-06T20:48:09;37.15;;;28.85;;
58972;SDS011;44750;52.040;7.472;2024-03-06T20:53:09;38.47;;;29.03;;
58972;SDS011;44750;52.040;7.472;2024-03-06T20:58:09;38.58;;;28.27;;
58972;SDS011;44750;52.040;7.472;2024-03-06T21:03:10;34.05;;;26.40;;
58972;SDS011;44750;52.040;7.472;2024-03-06T21:08:10;38.58;;;27.48;;
58972;SDS011;44750;52.040;7.472;2024-03-06T21:13:11;40.70;;;28.35;;
58972;SDS011;44750;52.040;7.472;2024-03-06T21:18:11;35.60;;;28.05;;
58972;SDS011;44750;52.040;7.472;2024-03-06T21:23:11;40.75;;;27.52;;
58972;SDS011;44750;52.040;7.472;2024-03-06T21:28:12;39.92;;;28.50;;
58972;SDS011;44750;52.040;7.472;2024-03-06T21:33:12;37.45;;;26.95;;
58972;SDS011;44750;52.040;7.472;2024-03-06T21:38:13;34.40;;;25.92;;
58972;SDS011;44750;52.040;7.472;2024-03-06T21:43:13;38.55;;;27.38;;
58972;SDS011;44750;52.040;7.472;2024-03-06T21:48:13;37.53;;;26.93;;
58972;SDS011;44750;52.040;7.472;2024-03-06T21:53:14;41.20;;;27.35;;
